Latest Weather Observations for Oakey

IDQ60901

Issued at 8:31 am EST Tuesday 26 September 2017 (issued every 10 minutes, with the page automatically refreshed every 10 minutes)

About weather observations | Map of Brisbane area stations | Latest observations for Brisbane area | Other Formats
Station Details ID: 041359 Name: OAKEY AERO Lat: -27.40 Lon: 151.74 Height: 405.69 m
Data from the previous 72 hours. | See also: Recent months at Oakey
Date/Time
EST
Temp
°C
App
Temp
°C
Dew
Point
°C
Rel
Hum
%
Delta-T
°C
Wind Press
QNH
hPa
Press
MSL
hPa
Rain since
9am
mm
Dir  Spd
km/h
Gust
km/h
Spd
kts
Gust
kts
26/08:30am 23.5 20.1 9.1 40 7.9 WNW 17 26 9 14 1015.8 1015.0 0.0
26/08:00am 22.0 20.0 8.5 42 7.3 W 9 11 5 6 1015.6 1014.8 0.0
26/07:30am 21.9 21.5 9.8 46 6.7 WNW 2 9 1 5 1015.3 1014.6 0.0
26/07:00am 18.6 18.1 7.7 49 5.7 CALM 0 0 0 0 1014.5 1013.7 0.0
26/06:30am 18.0 17.6 8.3 53 5.1 CALM 0 0 0 0 1014.1 1013.3 0.0
26/06:00am 16.0 13.2 7.0 55 4.5 NNE 11 13 6 7 1013.9 1013.1 0.0
26/05:55am 15.6 12.3 6.3 54 4.6 NE 13 17 7 9 1013.8 1013.0 0.0
26/05:45am 14.7 11.5 5.2 53 4.6 NE 11 15 6 8 1013.4 1012.6 0.0
26/05:30am 14.0 11.0 4.3 52 4.6 ENE 9 13 5 7 1013.5 1012.7 0.0
26/05:00am 14.9 12.4 4.6 50 4.9 NE 7 11 4 6 1013.8 1013.0 0.0
26/04:30am 14.4 11.1 6.3 58 4.0 NNE 13 15 7 8 1013.5 1012.7 0.0
26/04:00am 13.1 9.4 4.3 55 4.1 NNE 13 15 7 8 1013.2 1012.4 0.0
26/03:30am 13.2 10.4 3.0 50 4.6 ESE 7 9 4 5 1013.1 1012.3 0.0
26/03:00am 13.9 10.9 4.2 52 4.5 SE 9 9 5 5 1012.8 1012.1 0.0
26/02:30am 15.0 13.8 4.4 49 5.0 CALM 0 0 0 0 1012.8 1012.1 0.0
26/02:00am 14.5 10.9 3.0 46 5.3 NE 11 11 6 6 1012.5 1011.7 0.0
26/01:30am 15.3 12.2 3.8 46 5.4 ENE 9 11 5 6 1012.7 1012.0 0.0
26/01:00am 16.9 14.0 4.6 44 5.9 NNE 9 11 5 6 1013.1 1012.3 0.0
26/12:30am 18.7 15.8 4.5 39 6.9 NNW 9 13 5 7 1013.1 1012.3 0.0
26/12:00am 19.8 16.2 3.1 33 8.0 WSW 11 15 6 8 1013.7 1012.9 0.0
 
Date/Time
EST
Temp
°C
App
Temp
°C
Dew
Point
°C
Rel
Hum
%
Delta-T
°C
Wind Press
QNH
hPa
Press
MSL
hPa
Rain since
9am
mm
Dir  Spd
km/h
Gust
km/h
Spd
kts
Gust
kts
25/11:30pm 21.2 16.1 3.0 30 8.8 SW 19 24 10 13 1013.9 1013.1 0.0
25/11:13pm 24.0 18.9 5.8 31 9.4 SW 22 30 12 16 1013.6 1012.8 0.0
25/11:00pm 17.1 14.3 3.4 40 6.5 SE 7 11 4 6 1013.3 1012.5 0.0
25/10:30pm 19.8 17.9 3.1 33 8.0 N 2 7 1 4 1012.8 1012.1 0.0
25/10:00pm 20.5 17.9 3.3 32 8.3 NNW 6 9 3 5 1012.8 1012.1 0.0
25/09:30pm 21.2 18.7 3.9 32 8.5 N 6 9 3 5 1012.6 1011.9 0.0
25/09:00pm 20.9 17.3 2.7 30 8.7 NNE 11 13 6 7 1012.5 1011.7 0.0
25/08:30pm 21.9 17.8 4.5 32 8.7 NNE 15 17 8 9 1012.2 1011.4 0.0
25/08:00pm 22.1 17.8 3.3 29 9.2 N 15 15 8 8 1012.4 1011.6 0.0
25/07:30pm 22.5 17.8 3.1 28 9.5 N 17 19 9 10 1012.1 1011.3 0.0
25/07:00pm 24.9 20.9 3.0 24 10.9 NNW 13 15 7 8 1011.9 1011.1 0.0
25/06:30pm 26.8 22.5 5.1 25 11.3 WNW 17 19 9 10 1011.8 1011.0 0.0
25/06:00pm 29.4 24.6 4.8 21 13.0 WNW 19 22 10 12 1011.5 1010.7 0.0
25/05:30pm 30.7 25.4 5.2 20 13.6 WNW 22 28 12 15 1011.2 1010.4 0.0
25/05:00pm 31.9 25.0 4.6 18 14.5 WNW 30 41 16 22 1011.1 1010.3 0.0
25/04:30pm 32.5 25.0 3.5 16 15.2 WNW 32 39 17 21 1010.9 1010.1 0.0
25/04:00pm 33.6 25.5 3.4 15 15.9 NW 35 44 19 24 1010.7 1009.9 0.0
25/03:30pm 33.6 25.1 3.4 15 15.9 WNW 37 48 20 26 1010.7 1009.9 0.0
25/03:00pm 34.0 26.2 2.8 14 16.3 NW 33 46 18 25 1010.9 1010.1 0.0
25/02:30pm 33.9 25.7 2.7 14 16.3 NW 35 54 19 29 1011.0 1010.2 0.0
25/02:00pm 34.5 26.0 3.1 14 16.6 NW 37 50 20 27 1011.4 1010.6 0.0
25/01:30pm 33.9 25.9 3.7 15 16.0 NW 35 50 19 27 1011.7 1010.9 0.0
25/01:00pm 34.0 26.7 5.5 17 15.6 WNW 33 43 18 23 1012.1 1011.3 0.0
25/12:30pm 32.7 25.9 5.3 18 14.8 WNW 30 44 16 24 1012.6 1011.9 0.0
25/12:00pm 30.9 24.1 5.3 20 13.7 NW 30 39 16 21 1013.3 1012.5 0.0
25/11:30am 30.2 23.3 4.8 20 13.4 NW 30 43 16 23 1013.9 1013.1 0.0
25/11:04am 30.5 24.4 6.4 22 13.1 NW 28 48 15 26 1014.4 1013.6 0.0
25/11:00am 29.6 23.7 5.6 22 12.8 NW 26 41 14 22 1014.5 1013.7 0.0
25/10:30am 29.2 22.4 5.3 22 12.7 NW 30 43 16 23 1015.1 1014.4 0.0
25/10:00am 29.1 22.1 5.9 23 12.4 NW 32 41 17 22 1015.6 1014.8 0.0
25/09:30am 27.9 20.9 6.1 25 11.6 NW 32 41 17 22 1015.6 1014.8 0.0
25/09:00am 26.6 20.6 7.1 29 10.5 WNW 28 35 15 19 1015.9 1015.1 0.0
25/08:30am 26.0 19.8 6.1 28 10.5 WNW 28 43 15 23 1015.9 1015.1 0.0
25/08:00am 25.3 19.9 6.5 30 9.9 W 24 32 13 17 1015.6 1014.8 0.0
25/07:30am 24.7 19.6 6.0 30 9.8 NW 22 32 12 17 1014.4 1013.6 0.0
25/07:00am 23.4 18.5 7.1 35 8.6 NW 22 30 12 16 1014.1 1013.3 0.0
25/06:30am 21.7 17.7 8.2 42 7.2 WNW 19 24 10 13 1014.0 1013.2 0.0
25/06:00am 20.4 17.3 9.0 48 6.1 WNW 15 20 8 11 1013.7 1012.9 0.0
25/05:30am 20.2 18.4 9.5 50 5.8 W 9 15 5 8 1013.2 1012.4 0.0
25/05:22am 19.9 18.8 10.6 55 5.1 W 7 13 4 7 1013.0 1012.2 0.0
25/05:00am 14.9 14.3 10.3 74 2.5 SSE 4 7 2 4 1012.6 1011.9 0.0
25/04:30am 14.8 14.9 10.0 73 2.6 CALM 0 0 0 0 1012.3 1011.5 0.0
25/04:00am 14.9 13.8 10.1 73 2.6 SE 6 7 3 4 1011.9 1011.1 0.0
25/03:30am 15.1 13.6 9.2 68 3.1 ESE 7 9 4 5 1011.8 1011.0 0.0
25/03:00am 16.0 14.9 9.9 67 3.3 SE 6 7 3 4 1011.9 1011.1 0.0
25/02:30am 18.1 17.3 11.0 63 3.9 ESE 6 9 3 5 1011.9 1011.1 0.0
25/02:00am 18.7 17.2 9.2 54 5.1 NE 7 9 4 5 1011.8 1011.0 0.0
25/01:30am 20.4 19.0 10.8 54 5.3 NE 9 13 5 7 1011.9 1011.1 0.0
25/01:00am 19.3 17.8 9.2 52 5.4 ENE 7 9 4 5 1012.1 1011.3 0.0
25/12:30am 21.1 18.5 10.6 51 5.8 NE 15 20 8 11 1012.2 1011.4 0.0
25/12:00am 20.4 18.0 7.1 42 6.9 NNE 9 13 5 7 1012.4 1011.6 0.0
 
Date/Time
EST
Temp
°C
App
Temp
°C
Dew
Point
°C
Rel
Hum
%
Delta-T
°C
Wind Press
QNH
hPa
Press
MSL
hPa
Rain since
9am
mm
Dir  Spd
km/h
Gust
km/h
Spd
kts
Gust
kts
24/11:30pm 21.7 18.0 4.7 33 8.5 N 13 15 7 8 1012.2 1011.4 0.0
24/11:00pm 23.2 18.7 4.2 29 9.5 N 17 19 9 10 1012.2 1011.4 0.0
24/10:30pm 23.9 19.0 4.3 28 9.9 N 19 24 10 13 1012.2 1011.4 0.0
24/10:00pm 26.3 20.7 5.3 26 11.0 NNW 24 32 13 17 1012.0 1011.2 0.0
24/09:30pm 25.9 20.2 4.9 26 10.8 N 24 30 13 16 1011.7 1010.9 0.0
24/09:00pm 26.3 20.6 4.7 25 11.2 N 24 28 13 15 1011.6 1010.8 0.0
24/08:30pm 26.2 20.6 3.5 23 11.5 N 22 28 12 15 1011.6 1010.8 0.0
24/08:00pm 26.7 20.6 2.6 21 12.0 N 24 33 13 18 1011.3 1010.5 0.0
24/07:30pm 26.9 20.7 2.1 20 12.3 N 24 32 13 17 1010.9 1010.1 0.0
24/07:00pm 25.3 20.3 1.4 21 11.6 N 17 22 9 12 1010.7 1009.9 0.0
24/06:30pm 25.7 21.2 2.4 22 11.5 NNW 15 17 8 9 1010.4 1009.5 0.0
24/06:00pm 28.3 23.0 1.7 18 13.2 NNW 19 22 10 12 1010.1 1009.3 0.0
24/05:30pm 31.3 24.6 1.6 15 15.0 NW 26 35 14 19 1009.8 1009.0 0.0
24/05:00pm 33.0 25.5 0.9 13 16.2 NW 30 43 16 23 1009.6 1008.8 0.0
24/04:30pm 33.8 26.0 1.6 13 16.5 NW 32 41 17 22 1009.3 1008.5 0.0
24/04:00pm 34.2 25.9 1.9 13 16.7 WNW 35 46 19 25 1009.4 1008.6 0.0
24/03:30pm 34.9 26.5 1.3 12 17.2 NW 35 48 19 26 1009.3 1008.5 0.0
24/03:14pm 34.8 26.9 2.3 13 16.9 NW 33 44 18 24 1009.4 1008.6 0.0
24/03:00pm 34.1 25.7 1.8 13 16.7 NW 35 46 19 25 1009.6 1008.8 0.0
24/02:30pm 35.0 27.1 2.5 13 17.0 NW 33 46 18 25 1009.7 1008.9 0.0
24/02:12pm 34.7 27.0 2.3 13 16.9 NW 32 52 17 28 1010.1 1009.3 0.0
24/02:00pm 34.4 26.3 3.1 14 16.5 NW 35 52 19 28 1010.4 1009.5 0.0
24/01:53pm 34.5 26.7 3.1 14 16.5 NW 33 52 18 28 1010.4 1009.5 0.0
24/01:30pm 34.7 26.6 3.3 14 16.6 NW 35 46 19 25 1010.7 1009.9 0.0
24/01:00pm 33.9 26.8 3.7 15 16.0 NW 30 41 16 22 1011.0 1010.2 0.0
24/12:31pm 33.9 26.0 4.6 16 15.8 NW 35 54 19 29 1011.4 1010.6 0.0
24/12:30pm 33.9 25.5 3.7 15 16.0 NNW 37 54 20 29 1011.4 1010.6 0.0
24/12:00pm 33.7 26.4 5.3 17 15.4 NNW 33 44 18 24 1011.9 1011.1 0.0
24/11:30am 32.7 25.4 5.3 18 14.8 NNW 33 44 18 24 1012.5 1011.7 0.0
24/11:00am 31.7 24.5 6.0 20 14.0 NNW 33 43 18 23 1013.1 1012.3 0.0
24/10:30am 30.3 23.0 5.6 21 13.2 NNW 33 44 18 24 1013.7 1012.9 0.0
24/10:00am 30.3 23.2 5.6 21 13.2 NNW 32 43 17 23 1013.9 1013.1 0.0
24/09:30am 28.8 20.3 5.0 22 12.5 NW 39 52 21 28 1014.4 1013.6 0.0
24/09:00am 28.4 21.1 4.6 22 12.4 NW 32 39 17 21 1014.5 1013.7 0.0
24/08:30am 27.0 18.3 4.1 23 11.7 NNW 39 48 21 26 1014.5 1013.7 0.0
24/08:10am 26.4 22.3 4.2 24 11.4 WNW 15 37 8 20 1014.6 1013.8 0.0
24/08:00am 24.1 21.6 6.4 32 9.3 WNW 9 13 5 7 1014.7 1014.0 0.0
24/07:30am 22.4 21.3 9.9 45 6.9 E 6 7 3 4 1014.6 1013.8 0.0
24/07:00am 19.1 17.9 9.6 54 5.1 SSE 6 9 3 5 1014.3 1013.5 0.0
24/06:30am 15.0 13.6 9.4 69 2.9 SE 7 9 4 5 1014.0 1013.2 0.0
24/06:00am 12.8 11.6 7.9 72 2.5 E 4 7 2 4 1013.6 1012.8 0.0
24/05:30am 12.4 10.5 7.5 72 2.4 NE 7 9 4 5 1013.5 1012.7 0.0
24/05:00am 12.6 10.5 6.6 67 2.9 E 7 9 4 5 1013.5 1012.7 0.0
24/04:30am 13.5 11.3 7.7 68 2.9 SE 9 11 5 6 1013.4 1012.6 0.0
24/04:00am 13.6 11.3 7.4 66 3.1 S 9 9 5 5 1013.4 1012.6 0.0
24/03:30am 14.8 13.0 7.8 63 3.6 S 7 9 4 5 1013.3 1012.5 0.0
24/03:00am 15.0 13.4 8.7 66 3.3 S 7 7 4 4 1013.4 1012.6 0.0
24/02:30am 14.8 12.5 7.6 62 3.6 E 9 11 5 6 1013.4 1012.6 0.0
24/02:00am 15.8 13.5 7.3 57 4.3 NE 9 11 5 6 1013.7 1012.9 0.0
24/01:30am 17.9 15.7 7.9 52 5.2 ENE 9 11 5 6 1014.1 1013.3 0.0
24/01:00am 18.1 16.1 8.7 54 5.0 NE 9 13 5 7 1014.2 1013.4 0.0
24/12:30am 18.0 15.8 8.0 52 5.2 NNE 9 11 5 6 1014.5 1013.7 0.0
24/12:00am 20.0 18.2 9.3 50 5.8 NNE 9 9 5 5 1014.8 1014.1 0.0
 
Date/Time
EST
Temp
°C
App
Temp
°C
Dew
Point
°C
Rel
Hum
%
Delta-T
°C
Wind Press
QNH
hPa
Press
MSL
hPa
Rain since
9am
mm
Dir  Spd
km/h
Gust
km/h
Spd
kts
Gust
kts
23/11:30pm 19.6 17.5 6.7 43 6.6 NNE 7 9 4 5 1014.9 1014.2 0.0
23/11:00pm 21.3 18.1 6.8 39 7.5 N 13 17 7 9 1014.8 1014.1 0.0
23/10:30pm 22.0 18.2 5.8 35 8.3 NNE 15 19 8 10 1014.7 1014.0 0.0
23/10:00pm 22.2 18.7 5.6 34 8.5 NNE 13 15 7 8 1014.6 1013.8 0.0
23/09:30pm 23.5 19.0 5.9 32 9.1 NNE 19 22 10 12 1014.6 1013.8 0.0
23/09:00pm 22.2 18.9 6.4 36 8.2 NNE 13 15 7 8 1014.9 1014.2 0.0
23/08:30pm 23.5 19.8 6.3 33 9.0 NNE 15 19 8 10 1014.7 1014.0 0.0
23/08:00pm 23.5 19.8 6.3 33 9.0 NNE 15 19 8 10 1014.6 1013.8 0.0
23/07:30pm 22.7 18.9 5.6 33 8.8 NNE 15 17 8 9 1014.4 1013.6 0.0
23/07:00pm 22.0 18.1 3.6 30 9.0 N 13 17 7 9 1014.0 1013.2 0.0
23/06:30pm 23.4 18.7 3.4 27 9.9 N 17 17 9 9 1013.6 1012.8 0.0
23/06:00pm 26.1 22.0 4.6 25 11.1 NNW 15 17 8 9 1013.2 1012.4 0.0
23/05:30pm 29.2 24.8 4.6 21 12.9 NW 17 19 9 10 1013.0 1012.2 0.0
23/05:00pm 30.8 25.8 3.8 18 14.1 NW 19 24 10 13 1012.6 1011.9 0.0
23/04:30pm 31.6 25.9 2.7 16 14.9 NNW 22 32 12 17 1012.4 1011.6 0.0
23/04:00pm 32.3 27.5 2.4 15 15.4 NNW 17 28 9 15 1012.3 1011.5 0.0
23/03:30pm 32.1 26.5 0.2 13 15.8 NNW 19 28 10 15 1012.3 1011.5 0.0
23/03:00pm 32.6 27.1 0.6 13 16.0 NW 19 28 10 15 1012.4 1011.6 0.0
23/02:30pm 32.2 27.7 2.3 15 15.3 N 15 24 8 13 1012.6 1011.9 0.0
23/02:00pm 31.9 27.1 4.6 18 14.5 NNW 19 28 10 15 1013.1 1012.3 0.0
23/01:30pm 32.1 27.5 5.6 19 14.3 NW 19 30 10 16 1013.6 1012.8 0.0
23/01:00pm 31.3 27.2 6.4 21 13.6 N 17 24 9 13 1014.1 1013.3 0.0
23/12:30pm 30.4 26.2 7.6 24 12.6 NNW 19 28 10 15 1014.6 1013.8 0.0
23/12:00pm 30.4 26.0 7.6 24 12.6 NW 20 35 11 19 1015.1 1014.4 0.0
23/11:30am 29.2 24.1 7.7 26 11.9 NW 24 33 13 18 1015.9 1015.1 0.0
23/11:00am 28.8 23.6 7.4 26 11.7 NNW 24 35 13 19 1016.3 1015.5 0.0
23/10:30am 27.8 23.5 7.1 27 11.2 NW 19 32 10 17 1016.7 1015.9 0.0
23/10:00am 26.6 22.2 7.6 30 10.3 NW 20 28 11 15 1017.4 1016.7 0.0
23/09:30am 25.6 20.1 5.8 28 10.4 NW 24 35 13 19 1017.5 1016.8 0.0
23/09:00am 24.7 18.4 5.5 29 9.9 NW 28 35 15 19 1017.6 1016.9 0.0

Latest Capital City Observations: Canberra | Sydney | Melbourne | Brisbane | Adelaide | Perth | Hobart | Darwin

Other Formats:

Comma delimited format used in spreadsheet applications
http://www.bom.gov.au/fwo/IDQ60901/IDQ60901.94552.axf

JavaScript Object Notation format (JSON) in row-major order
http://www.bom.gov.au/fwo/IDQ60901/IDQ60901.94552.json